This is the latest recevied weather packets stored in our database for station/object OM4MO-10. If no packets are shown the sender has not sent any weather packets the latest 10 day(s).
| Time | Temp. | Humidity | Pressure | Rain* | Wind** | Luminosity | Snow |
|---|---|---|---|---|---|---|---|
| 1777931489 | 8.33° C | 100% | 1016.6 hPa | - | - | - | - |
| 1777930288 | 8.33° C | 100% | 1016.5 hPa | - | - | - | - |
| 1777929088 | 8.89° C | 100% | 1016.7 hPa | - | - | - | - |
| 1777927888 | 9.44° C | 100% | 1016.6 hPa | - | - | - | - |
| 1777926688 | 11.11° C | 100% | 1016.5 hPa | - | - | - | - |
| 1777925488 | 10° C | 100% | 1016.4 hPa | - | - | - | - |
| 1777924288 | 11.11° C | 97% | 1015.9 hPa | - | - | - | - |
| 1777923088 | 11.11° C | 96% | 1008.3 hPa | - | - | - | - |
| 1777921888 | 12.78° C | 84% | 1009.4 hPa | - | - | - | - |
| 1777920687 | 12.22° C | 79% | 1011 hPa | - | - | - | - |
| 1777919487 | 13.89° C | 66% | 1013.3 hPa | - | - | - | - |
| 1777918287 | 15° C | 56% | 1015.6 hPa | - | - | - | - |
| 1777917087 | 15.56° C | 53% | 1017.4 hPa | - | - | - | - |
| 1777915887 | 17.78° C | 44% | 1020.9 hPa | - | - | - | - |
| 1777914687 | 19.44° C | 40% | 1024.4 hPa | - | - | - | - |
| 1777913487 | 24.44° C | 29% | 1031.1 hPa | - | - | - | - |
| 1777912287 | 22.78° C | 28% | 1032.4 hPa | - | - | - | - |
| 1777911086 | 22.78° C | 26% | 1033.5 hPa | - | - | - | - |
| 1777909886 | 24.44° C | 25% | 1034.8 hPa | - | - | - | - |
| 1777908686 | 23.33° C | 26% | 1034.5 hPa | - | - | - | - |
| 1777907486 | 23.33° C | 24% | 1036.2 hPa | - | - | - | - |
| 1777906286 | 23.89° C | 26% | 1035.5 hPa | - | - | - | - |
| 1777905086 | 23.89° C | 25% | 1037.3 hPa | - | - | - | - |
| 1777903886 | 23.89° C | 24% | 1038 hPa | - | - | - | - |
| 1777902686 | 23.89° C | 21% | 1039.7 hPa | - | - | - | - |
* Rain since midnight (hover to see other rain measurements)
** Current wind speed in m/s (hover to see current wind gust speed)